createdAt,value
2018-12-11T00:01:18.446Z,3.20
2018-12-11T00:03:46.973Z,3.10
2018-12-11T00:06:15.544Z,3.20
2018-12-11T00:08:44.068Z,3.20
2018-12-11T00:11:12.607Z,3.20
2018-12-11T00:13:41.132Z,3.20
2018-12-11T00:16:09.675Z,3.30
2018-12-11T00:18:38.204Z,3.30
2018-12-11T00:21:06.776Z,3.20
2018-12-11T00:23:35.320Z,3.30
2018-12-11T00:26:03.919Z,3.30
2018-12-11T00:28:32.465Z,3.30
2018-12-11T00:31:01.124Z,3.30
2018-12-11T00:33:29.661Z,3.30
2018-12-11T00:35:58.289Z,3.30
2018-12-11T00:38:27.441Z,3.30
2018-12-11T00:40:56.024Z,3.30
2018-12-11T00:43:24.547Z,3.40
2018-12-11T00:45:54.072Z,3.40
2018-12-11T00:48:22.748Z,3.50
2018-12-11T00:50:51.308Z,3.50
2018-12-11T00:53:20.454Z,3.50
2018-12-11T00:55:49.025Z,3.50
2018-12-11T00:58:17.578Z,3.50
2018-12-11T01:00:46.161Z,3.50
2018-12-11T01:03:14.718Z,3.50
2018-12-11T01:05:43.259Z,3.50
2018-12-11T01:08:11.816Z,3.40
2018-12-11T01:10:40.844Z,3.40
2018-12-11T01:13:09.498Z,3.40
2018-12-11T01:15:38.162Z,3.30
2018-12-11T01:18:06.788Z,3.30
2018-12-11T01:20:35.328Z,3.30
2018-12-11T01:23:03.887Z,3.30
2018-12-11T01:25:32.435Z,3.20
2018-12-11T01:28:00.981Z,3.20
2018-12-11T01:30:29.524Z,3.20
2018-12-11T01:32:58.071Z,3.20
2018-12-11T01:35:26.596Z,3.20
2018-12-11T01:37:55.155Z,3.20
2018-12-11T01:40:23.688Z,3.20
2018-12-11T01:42:52.233Z,3.30
2018-12-11T01:45:21.039Z,3.30
2018-12-11T01:47:49.593Z,3.30
2018-12-11T01:50:18.147Z,3.30
2018-12-11T01:52:46.721Z,3.30
2018-12-11T01:55:15.341Z,3.30
2018-12-11T01:57:43.882Z,3.30
2018-12-11T02:00:12.583Z,3.30
2018-12-11T02:02:41.151Z,3.40
2018-12-11T02:05:09.717Z,3.40
2018-12-11T02:07:38.317Z,3.30
2018-12-11T02:10:07.137Z,3.30
2018-12-11T02:12:35.657Z,3.30
2018-12-11T02:15:05.372Z,3.30
2018-12-11T02:17:33.915Z,3.30
2018-12-11T02:20:02.464Z,3.30
2018-12-11T02:22:31.013Z,3.30
2018-12-11T02:24:59.573Z,3.30
2018-12-11T02:27:28.144Z,3.30
2018-12-11T02:29:56.681Z,3.30
2018-12-11T02:32:25.265Z,3.30
2018-12-11T02:34:53.929Z,3.30
2018-12-11T02:37:22.514Z,3.30
2018-12-11T02:39:51.098Z,3.30
2018-12-11T02:42:19.644Z,3.20
2018-12-11T02:44:48.225Z,3.20
2018-12-11T02:47:16.788Z,3.20
2018-12-11T02:49:45.352Z,3.20
2018-12-11T02:52:13.885Z,3.30
2018-12-11T02:54:42.436Z,3.30
2018-12-11T02:57:10.984Z,3.30
2018-12-11T02:59:39.523Z,3.30
2018-12-11T03:02:08.087Z,3.30
2018-12-11T03:04:36.644Z,3.30
2018-12-11T03:07:05.172Z,3.30
2018-12-11T03:09:33.710Z,3.40
2018-12-11T03:12:02.248Z,3.30
2018-12-11T03:14:30.847Z,3.30
2018-12-11T03:16:59.407Z,3.30
2018-12-11T03:19:27.963Z,3.30
2018-12-11T03:21:56.477Z,3.30
2018-12-11T03:24:25.011Z,3.30
2018-12-11T03:26:53.551Z,3.30
2018-12-11T03:29:22.124Z,3.30
2018-12-11T03:31:50.672Z,3.40
2018-12-11T03:34:19.214Z,3.30
2018-12-11T03:36:47.767Z,3.30
2018-12-11T03:39:16.283Z,3.40
2018-12-11T03:41:44.860Z,3.40
2018-12-11T03:44:13.426Z,3.30
2018-12-11T03:46:41.988Z,3.30
2018-12-11T03:49:10.546Z,3.30
2018-12-11T03:51:39.242Z,3.30
2018-12-11T03:54:07.804Z,3.30
2018-12-11T03:56:36.349Z,3.30
2018-12-11T03:59:04.969Z,3.20
2018-12-11T04:01:33.558Z,3.20
2018-12-11T04:04:02.105Z,3.20
2018-12-11T04:06:30.654Z,3.20
2018-12-11T04:08:59.219Z,3.20
2018-12-11T04:11:27.751Z,3.20
2018-12-11T04:13:56.366Z,3.10
2018-12-11T04:16:24.929Z,3.10
2018-12-11T04:18:53.619Z,3.10
2018-12-11T04:21:22.172Z,3.00
2018-12-11T04:23:50.734Z,2.90
2018-12-11T04:26:19.293Z,3.00
2018-12-11T04:28:47.889Z,2.90
2018-12-11T04:31:16.432Z,2.90
2018-12-11T04:33:44.999Z,2.90
2018-12-11T04:36:13.538Z,2.90
2018-12-11T04:38:42.102Z,2.90
2018-12-11T04:41:10.628Z,2.90
2018-12-11T04:43:39.165Z,3.00
2018-12-11T04:46:07.724Z,3.00
2018-12-11T04:48:36.369Z,3.00
2018-12-11T04:51:05.031Z,3.00
2018-12-11T04:53:33.555Z,3.00
2018-12-11T04:56:02.112Z,3.00
2018-12-11T04:58:30.672Z,2.90
2018-12-11T05:00:59.199Z,2.90
2018-12-11T05:03:27.723Z,2.90
2018-12-11T05:05:56.340Z,2.90
2018-12-11T05:08:25.103Z,2.90
2018-12-11T05:10:53.669Z,2.80
2018-12-11T05:13:22.201Z,2.80
2018-12-11T05:15:50.764Z,2.80
2018-12-11T05:18:21.188Z,2.70
2018-12-11T05:20:49.873Z,2.70
2018-12-11T05:23:18.403Z,2.80
2018-12-11T05:25:46.956Z,2.80
2018-12-11T05:28:15.513Z,2.80
2018-12-11T05:30:44.116Z,2.80
2018-12-11T05:33:12.658Z,2.80
2018-12-11T05:35:41.199Z,2.80
2018-12-11T05:38:09.756Z,2.90
2018-12-11T05:40:38.347Z,2.90
2018-12-11T05:43:12.852Z,2.90
2018-12-11T05:45:41.408Z,2.90
2018-12-11T05:48:09.989Z,2.90
2018-12-11T05:50:38.511Z,3.00
2018-12-11T05:53:07.092Z,3.00
2018-12-11T05:55:35.704Z,3.00
2018-12-11T05:58:04.315Z,3.00
2018-12-11T06:00:32.867Z,3.00
2018-12-11T06:03:01.412Z,3.00
2018-12-11T06:05:29.964Z,3.00
2018-12-11T06:07:58.557Z,3.00
2018-12-11T06:10:27.120Z,3.00
2018-12-11T06:12:55.648Z,3.00
2018-12-11T06:15:24.304Z,3.00
2018-12-11T06:17:52.831Z,3.00
2018-12-11T06:20:21.408Z,3.00
2018-12-11T06:22:49.963Z,3.10
2018-12-11T06:25:18.508Z,3.10
2018-12-11T06:27:47.052Z,3.10
2018-12-11T06:30:15.618Z,3.10
2018-12-11T06:32:44.191Z,3.00
2018-12-11T06:35:12.724Z,3.00
2018-12-11T06:37:41.288Z,3.00
2018-12-11T06:40:09.859Z,3.10
2018-12-11T06:42:38.395Z,3.10
2018-12-11T06:45:07.283Z,3.10
2018-12-11T06:47:35.832Z,3.10
2018-12-11T06:50:05.303Z,3.10
2018-12-11T06:52:33.879Z,3.10
2018-12-11T06:55:02.405Z,3.00
2018-12-11T06:57:30.977Z,3.10
2018-12-11T06:59:59.503Z,3.00
2018-12-11T07:02:28.083Z,3.00
2018-12-11T07:04:56.637Z,3.00
2018-12-11T07:07:25.204Z,3.00
2018-12-11T07:09:53.751Z,3.00
2018-12-11T07:12:22.375Z,3.00
2018-12-11T07:14:50.964Z,3.00
2018-12-11T07:17:19.515Z,3.00
2018-12-11T07:19:48.084Z,3.00
2018-12-11T07:22:16.752Z,3.00
2018-12-11T07:24:45.376Z,3.00
2018-12-11T07:27:13.948Z,3.00
2018-12-11T07:29:42.520Z,3.00
2018-12-11T07:32:11.085Z,3.00
2018-12-11T07:34:39.639Z,3.00
2018-12-11T07:37:08.244Z,3.00
2018-12-11T07:39:36.807Z,3.00
2018-12-11T07:42:05.349Z,3.00
2018-12-11T07:44:33.899Z,2.90
2018-12-11T07:47:02.469Z,2.90
2018-12-11T07:49:31.021Z,2.80
2018-12-11T07:51:59.573Z,2.80
2018-12-11T07:54:28.204Z,2.70
2018-12-11T07:56:56.731Z,2.80
2018-12-11T07:59:25.297Z,2.80
2018-12-11T08:01:53.884Z,2.80
2018-12-11T08:04:22.441Z,2.80
2018-12-11T08:06:50.979Z,2.80
2018-12-11T08:09:19.540Z,2.80
2018-12-11T08:11:48.098Z,2.90
2018-12-11T08:14:16.661Z,2.90
2018-12-11T08:16:46.601Z,2.90
2018-12-11T08:19:15.212Z,2.90
2018-12-11T08:21:43.757Z,2.90
2018-12-11T08:24:12.307Z,3.00
2018-12-11T08:26:40.851Z,3.00
2018-12-11T08:29:09.471Z,3.10
2018-12-11T08:31:38.096Z,3.10
2018-12-11T08:34:06.727Z,3.20
2018-12-11T08:36:35.341Z,3.20
2018-12-11T08:39:05.104Z,3.20
2018-12-11T08:41:33.693Z,3.20
2018-12-11T08:44:02.250Z,3.30
2018-12-11T08:46:30.837Z,3.30
2018-12-11T08:48:59.388Z,3.30
2018-12-11T08:51:27.931Z,3.40
2018-12-11T08:53:56.468Z,3.40
2018-12-11T08:56:25.080Z,3.40
2018-12-11T08:58:53.636Z,3.40
2018-12-11T09:01:22.211Z,3.50
2018-12-11T09:03:50.741Z,3.50
2018-12-11T09:06:19.325Z,3.50
2018-12-11T09:08:47.889Z,3.60
2018-12-11T09:11:16.556Z,3.60
2018-12-11T09:13:45.136Z,3.70
2018-12-11T09:16:13.809Z,3.70
2018-12-11T09:18:42.385Z,3.70
2018-12-11T09:21:10.976Z,3.70
2018-12-11T09:23:39.578Z,3.70
2018-12-11T09:26:08.146Z,3.70
2018-12-11T09:28:36.827Z,3.80
2018-12-11T09:31:05.479Z,3.80
2018-12-11T09:33:34.043Z,3.90
2018-12-11T09:36:02.614Z,3.80
2018-12-11T09:38:31.198Z,3.90
2018-12-11T09:40:59.735Z,4.00
2018-12-11T09:43:28.353Z,4.10
2018-12-11T09:45:56.928Z,4.10
2018-12-11T09:48:25.508Z,4.30
2018-12-11T09:50:54.047Z,4.30
2018-12-11T09:53:22.628Z,4.30
2018-12-11T09:55:51.198Z,4.30
2018-12-11T09:58:19.764Z,4.30
2018-12-11T10:00:48.394Z,4.30
2018-12-11T10:03:16.962Z,4.30
2018-12-11T10:05:45.532Z,4.40
2018-12-11T10:08:14.156Z,4.30
2018-12-11T10:10:42.725Z,4.30
2018-12-11T10:13:11.333Z,4.40
2018-12-11T10:15:39.877Z,4.40
2018-12-11T10:18:08.495Z,4.80
2018-12-11T10:20:37.122Z,5.20
2018-12-11T10:23:06.605Z,5.50
2018-12-11T10:25:35.129Z,5.70
2018-12-11T10:28:03.708Z,6.00
2018-12-11T10:30:37.488Z,6.00
2018-12-11T10:33:06.055Z,6.10
2018-12-11T10:35:34.757Z,6.10
2018-12-11T10:38:03.440Z,6.10
2018-12-11T10:40:32.044Z,6.10
2018-12-11T10:43:00.586Z,6.10
2018-12-11T10:45:29.188Z,6.20
2018-12-11T10:47:57.739Z,6.50
2018-12-11T10:50:26.378Z,6.60
2018-12-11T10:52:54.921Z,6.80
2018-12-11T10:55:23.492Z,7.10
2018-12-11T10:57:52.024Z,7.10
2018-12-11T11:00:25.800Z,7.00
2018-12-11T11:02:59.585Z,6.90
2018-12-11T11:05:28.171Z,6.50
2018-12-11T11:07:56.898Z,6.30
2018-12-11T11:10:25.468Z,6.20
2018-12-11T11:12:54.031Z,6.20
2018-12-11T11:15:22.677Z,6.10
2018-12-11T11:17:51.276Z,6.10
2018-12-11T11:20:19.865Z,6.10
2018-12-11T11:22:48.407Z,6.00
2018-12-11T11:25:16.955Z,6.00
2018-12-11T11:27:45.566Z,5.90
2018-12-11T11:30:14.243Z,6.00
2018-12-11T11:32:47.267Z,5.90
2018-12-11T11:35:15.833Z,6.20
2018-12-11T11:37:44.393Z,6.20
2018-12-11T11:40:12.965Z,6.20
2018-12-11T11:42:41.893Z,6.40
2018-12-11T11:45:11.797Z,6.60
2018-12-11T11:47:40.557Z,6.50
2018-12-11T11:50:12.247Z,6.70
2018-12-11T11:52:40.814Z,7.10
2018-12-11T11:55:09.351Z,7.50
2018-12-11T11:57:38.166Z,7.90
2018-12-11T12:00:09.027Z,8.10
2018-12-11T12:02:37.719Z,8.50
2018-12-11T12:05:07.048Z,8.70
2018-12-11T12:07:35.634Z,8.90
2018-12-11T12:10:05.368Z,9.30
2018-12-11T12:12:34.081Z,9.40
2018-12-11T12:15:02.615Z,9.70
2018-12-11T12:17:31.241Z,10.00
2018-12-11T12:19:59.769Z,9.70
2018-12-11T12:22:28.296Z,9.70
2018-12-11T12:24:56.848Z,9.10
2018-12-11T12:27:25.391Z,8.60
2018-12-11T12:29:53.945Z,8.10
2018-12-11T12:32:22.559Z,7.70
2018-12-11T12:34:51.173Z,7.20
2018-12-11T12:37:19.708Z,6.90
2018-12-11T12:39:48.266Z,6.50
2018-12-11T12:42:16.802Z,6.20
2018-12-11T12:44:45.367Z,6.10
2018-12-11T12:47:13.926Z,6.00
2018-12-11T12:49:42.468Z,5.80
2018-12-11T12:52:11.048Z,5.70
2018-12-11T12:54:39.596Z,5.70
2018-12-11T12:57:08.151Z,5.80
2018-12-11T12:59:36.707Z,5.80
2018-12-11T13:02:05.405Z,5.80
2018-12-11T13:04:33.980Z,5.80
2018-12-11T13:07:02.507Z,5.80
2018-12-11T13:09:31.095Z,5.90
2018-12-11T13:12:00.685Z,5.80
2018-12-11T13:14:29.232Z,5.80
2018-12-11T13:16:57.795Z,5.80
2018-12-11T13:19:26.328Z,5.90
2018-12-11T13:21:54.847Z,5.80
2018-12-11T13:24:23.392Z,5.70
2018-12-11T13:26:51.953Z,5.70
2018-12-11T13:29:20.463Z,5.70
2018-12-11T13:31:49.003Z,5.70
2018-12-11T13:34:17.531Z,5.70
2018-12-11T13:36:46.088Z,5.70
2018-12-11T13:39:14.626Z,5.80
2018-12-11T13:41:43.300Z,5.60
2018-12-11T13:44:12.060Z,5.60
2018-12-11T13:46:41.112Z,5.70
2018-12-11T13:49:09.628Z,5.60
2018-12-11T13:51:38.280Z,5.60
2018-12-11T13:54:06.843Z,5.70
2018-12-11T13:56:35.358Z,5.70
2018-12-11T13:59:03.929Z,5.80
2018-12-11T14:01:32.524Z,5.90
2018-12-11T14:04:01.066Z,6.00
2018-12-11T14:06:29.589Z,6.20
2018-12-11T14:09:00.207Z,6.10
2018-12-11T14:11:28.752Z,6.20
2018-12-11T14:13:57.295Z,6.20
2018-12-11T14:16:25.836Z,6.20
2018-12-11T14:18:54.547Z,6.20
2018-12-11T14:21:23.082Z,6.20
2018-12-11T14:23:51.619Z,6.40
2018-12-11T14:26:20.168Z,6.60
2018-12-11T14:28:48.855Z,6.90
2018-12-11T14:31:17.421Z,7.00
2018-12-11T14:33:46.041Z,7.10
2018-12-11T14:36:14.600Z,7.20
2018-12-11T14:38:43.176Z,7.00
2018-12-11T14:41:11.859Z,6.90
2018-12-11T14:43:40.379Z,6.70
2018-12-11T14:46:08.957Z,6.50
2018-12-11T14:48:37.591Z,6.40
2018-12-11T14:51:06.158Z,6.40
2018-12-11T14:53:34.707Z,6.30
2018-12-11T14:56:03.256Z,6.20
2018-12-11T14:58:31.765Z,6.10
2018-12-11T15:01:00.324Z,6.00
2018-12-11T15:03:28.860Z,5.90
2018-12-11T15:05:57.429Z,5.80
2018-12-11T15:08:26.000Z,5.70
2018-12-11T15:10:54.644Z,5.70
2018-12-11T15:13:23.258Z,5.70
2018-12-11T15:15:51.809Z,5.70
2018-12-11T15:18:20.387Z,5.60
2018-12-11T15:20:48.943Z,5.60
2018-12-11T15:23:17.468Z,5.50
2018-12-11T15:25:46.021Z,5.50
2018-12-11T15:28:14.572Z,5.50
2018-12-11T15:30:43.099Z,5.50
2018-12-11T15:33:11.694Z,5.50
2018-12-11T15:35:40.228Z,5.50
2018-12-11T15:38:08.808Z,5.40
2018-12-11T15:40:37.385Z,5.40
2018-12-11T15:43:06.060Z,5.40
2018-12-11T15:45:34.591Z,5.40
2018-12-11T15:48:03.211Z,5.30
2018-12-11T15:50:31.800Z,5.30
2018-12-11T15:53:00.452Z,5.30
2018-12-11T15:55:29.032Z,5.20
2018-12-11T15:57:57.578Z,5.20
2018-12-11T16:00:26.112Z,5.10
2018-12-11T16:02:55.033Z,5.00
2018-12-11T16:05:23.689Z,4.90
2018-12-11T16:07:52.249Z,4.90
2018-12-11T16:10:20.808Z,4.80
2018-12-11T16:12:49.452Z,4.80
2018-12-11T16:15:17.985Z,4.70
2018-12-11T16:17:46.500Z,4.60
2018-12-11T16:20:15.072Z,4.50
2018-12-11T16:22:43.633Z,4.50
2018-12-11T16:25:12.229Z,4.40
2018-12-11T16:27:40.908Z,4.30
2018-12-11T16:30:09.552Z,4.30
2018-12-11T16:32:38.092Z,4.20
2018-12-11T16:35:06.924Z,4.10
2018-12-11T16:37:35.721Z,4.10
2018-12-11T16:40:05.080Z,4.00
2018-12-11T16:42:33.720Z,4.00
2018-12-11T16:45:03.196Z,4.00
2018-12-11T16:47:31.736Z,3.90
2018-12-11T16:50:00.300Z,3.90
2018-12-11T16:52:28.907Z,3.90
2018-12-11T16:54:57.472Z,3.90
2018-12-11T16:57:26.041Z,3.90
2018-12-11T16:59:54.600Z,3.90
2018-12-11T17:02:23.154Z,3.90
2018-12-11T17:04:51.700Z,3.90
2018-12-11T17:07:20.506Z,4.00
2018-12-11T17:09:49.148Z,4.00
2018-12-11T17:12:17.747Z,4.00
2018-12-11T17:14:46.420Z,4.00
2018-12-11T17:17:14.999Z,4.00
2018-12-11T17:19:43.652Z,4.00
2018-12-11T17:22:12.207Z,4.00
2018-12-11T17:24:40.781Z,4.00
2018-12-11T17:27:09.348Z,3.90
2018-12-11T17:29:37.885Z,3.90
2018-12-11T17:32:06.467Z,3.80
2018-12-11T17:34:35.036Z,3.70
2018-12-11T17:37:03.740Z,3.70
2018-12-11T17:39:32.280Z,3.60
2018-12-11T17:42:00.855Z,3.50
2018-12-11T17:44:29.400Z,3.50
2018-12-11T17:46:57.926Z,3.40
2018-12-11T17:49:27.043Z,3.30
2018-12-11T17:51:55.624Z,3.30
2018-12-11T17:54:24.171Z,3.20
2018-12-11T17:56:52.728Z,3.20
2018-12-11T17:59:22.555Z,3.10
2018-12-11T18:01:55.175Z,3.00
2018-12-11T18:04:23.740Z,3.10
2018-12-11T18:06:52.369Z,3.00
2018-12-11T18:09:20.917Z,2.90
2018-12-11T18:11:49.452Z,2.90
2018-12-11T18:14:18.002Z,2.80
2018-12-11T18:16:46.535Z,2.80
2018-12-11T18:19:15.080Z,2.80
2018-12-11T18:21:43.596Z,2.70
2018-12-11T18:24:12.141Z,2.60
2018-12-11T18:26:40.681Z,2.60
2018-12-11T18:29:09.223Z,2.60
2018-12-11T18:31:37.771Z,2.60
2018-12-11T18:34:10.876Z,2.60
2018-12-11T18:36:37.172Z,2.60
2018-12-11T18:39:07.829Z,2.50
2018-12-11T18:41:36.373Z,2.50
2018-12-11T18:44:04.937Z,2.50
2018-12-11T18:46:33.473Z,2.50
2018-12-11T18:49:02.050Z,2.60
2018-12-11T18:51:30.617Z,2.60
2018-12-11T18:53:59.240Z,2.60
2018-12-11T18:56:30.185Z,2.60
2018-12-11T18:58:58.721Z,2.60
2018-12-11T19:01:27.337Z,2.70
2018-12-11T19:03:55.881Z,2.60
2018-12-11T19:06:24.444Z,2.60
2018-12-11T19:08:53.133Z,2.60
2018-12-11T19:11:21.695Z,2.60
2018-12-11T19:13:50.251Z,2.60
2018-12-11T19:16:18.825Z,2.60
2018-12-11T19:18:47.470Z,2.70
2018-12-11T19:21:16.873Z,2.70
2018-12-11T19:24:53.030Z,2.70
2018-12-11T19:27:21.707Z,2.70
2018-12-11T19:29:50.223Z,2.80
2018-12-11T19:32:18.839Z,2.80
2018-12-11T19:34:47.505Z,2.80
2018-12-11T19:37:16.197Z,2.80
2018-12-11T19:39:44.832Z,2.80
2018-12-11T19:42:13.500Z,2.80
2018-12-11T19:44:42.030Z,2.80
2018-12-11T19:47:10.667Z,2.70
2018-12-11T19:49:39.228Z,2.70
2018-12-11T19:52:07.789Z,2.70
2018-12-11T19:54:36.337Z,2.70
2018-12-11T19:57:04.899Z,2.80
2018-12-11T19:59:33.526Z,2.80
2018-12-11T20:02:02.121Z,2.80
2018-12-11T20:04:30.651Z,2.90
2018-12-11T20:06:59.208Z,2.90
2018-12-11T20:09:27.810Z,2.90
2018-12-11T20:11:56.360Z,2.90
2018-12-11T20:14:24.936Z,3.00
2018-12-11T20:16:53.509Z,2.90
2018-12-11T20:19:22.077Z,2.90
2018-12-11T20:21:50.632Z,2.90
2018-12-11T20:24:19.217Z,3.00
2018-12-11T20:26:47.845Z,2.90
2018-12-11T20:29:16.596Z,2.90
2018-12-11T20:31:45.212Z,2.90
2018-12-11T20:34:13.856Z,2.90
2018-12-11T20:36:43.126Z,2.80
2018-12-11T20:39:11.675Z,2.70
2018-12-11T20:41:40.233Z,2.60
2018-12-11T20:44:08.789Z,2.60
2018-12-11T20:46:37.325Z,2.60
2018-12-11T20:49:05.921Z,2.50
2018-12-11T20:51:34.516Z,2.40
2018-12-11T20:54:03.058Z,2.40
2018-12-11T20:56:31.607Z,2.40
2018-12-11T20:59:00.242Z,2.40
2018-12-11T21:01:28.821Z,2.50
2018-12-11T21:03:57.356Z,2.50
2018-12-11T21:06:25.894Z,2.40
2018-12-11T21:08:54.427Z,2.30
2018-12-11T21:11:22.975Z,2.30
2018-12-11T21:13:51.514Z,2.20
2018-12-11T21:16:20.143Z,2.20
2018-12-11T21:18:49.043Z,2.20
2018-12-11T21:21:17.627Z,2.20
2018-12-11T21:23:46.152Z,2.10
2018-12-11T21:26:14.724Z,2.00
2018-12-11T21:28:43.285Z,2.00
2018-12-11T21:31:11.849Z,2.00
2018-12-11T21:33:40.359Z,2.00
2018-12-11T21:36:08.908Z,2.00
2018-12-11T21:38:37.569Z,2.00
2018-12-11T21:41:06.147Z,2.00
2018-12-11T21:43:34.712Z,2.00
2018-12-11T21:46:03.240Z,2.00
2018-12-11T21:48:31.840Z,1.90
2018-12-11T21:51:00.386Z,1.90
2018-12-11T21:53:29.068Z,1.80
2018-12-11T21:55:57.663Z,1.80
2018-12-11T21:58:26.208Z,1.80
2018-12-11T22:00:54.889Z,1.70
2018-12-11T22:03:23.592Z,1.70
2018-12-11T22:05:52.156Z,1.60
2018-12-11T22:08:20.713Z,1.60
2018-12-11T22:10:49.265Z,1.60
2018-12-11T22:13:17.818Z,1.60
2018-12-11T22:15:46.353Z,1.50
2018-12-11T22:18:14.892Z,1.50
2018-12-11T22:20:43.395Z,1.50
2018-12-11T22:23:11.972Z,1.50
2018-12-11T22:25:40.492Z,1.50
2018-12-11T22:28:09.016Z,1.40
2018-12-11T22:30:37.565Z,1.40
2018-12-11T22:33:06.110Z,1.40
2018-12-11T22:35:34.697Z,1.50
2018-12-11T22:38:03.360Z,1.40
2018-12-11T22:40:31.926Z,1.40
2018-12-11T22:43:00.468Z,1.50
2018-12-11T22:45:29.128Z,1.50
2018-12-11T22:47:57.704Z,1.50
2018-12-11T22:50:26.261Z,1.60
2018-12-11T22:52:54.889Z,1.60
2018-12-11T22:55:23.564Z,1.60
2018-12-11T22:57:52.119Z,1.70
2018-12-11T23:00:21.235Z,1.70
2018-12-11T23:02:49.796Z,1.70
2018-12-11T23:05:18.333Z,1.70
2018-12-11T23:07:46.856Z,1.80
2018-12-11T23:10:15.417Z,1.80
2018-12-11T23:12:43.954Z,1.80
2018-12-11T23:15:12.520Z,1.80
2018-12-11T23:17:41.069Z,1.90
2018-12-11T23:20:09.631Z,1.90
2018-12-11T23:22:38.246Z,2.00
2018-12-11T23:25:07.219Z,2.00
2018-12-11T23:27:35.816Z,2.00
2018-12-11T23:30:05.243Z,2.00
2018-12-11T23:32:33.820Z,2.00
2018-12-11T23:35:02.485Z,2.00
2018-12-11T23:37:31.067Z,2.10
2018-12-11T23:39:59.607Z,2.10
2018-12-11T23:42:28.249Z,2.10
2018-12-11T23:44:56.771Z,2.10
2018-12-11T23:47:25.346Z,2.20
2018-12-11T23:49:53.893Z,2.10
2018-12-11T23:52:22.488Z,2.20
2018-12-11T23:54:51.025Z,2.20
2018-12-11T23:57:19.700Z,2.20
2018-12-11T23:59:48.245Z,2.20
